BCS2K EDDS-EDDN
Flight info
| Callsign | BCS2K |
|---|---|
| Flight time | N/A |
| Altitude | 17000 |
| Route | DKB4H/07 DKB N869 LETKU LETKU1V |
| Aircraft | A333/H-SDE3GHIJ2J3J5M1RVWXY/LB2D1 |
Departure
| Time | 2026-05-04 16:57 |
|---|---|
| Airport | Stuttgart Airport (EDDS) |
Arrival
| Time | N/A |
|---|---|
| Airport | Nuremberg Airport (EDDN) |
| Time | Latitude | Longitude | Altitude | Speed | Heading |
|---|---|---|---|---|---|
| 2026-05-04 16:38 | 48.68380 | 9.20645 | 1289 ft | 0 kts | 164° |
| 2026-05-04 16:48 | 48.68390 | 9.20640 | 1289 ft | 2 kts | 166° |
| 2026-05-04 16:49 | 48.68403 | 9.20635 | 1289 ft | 0 kts | 173° |
| 2026-05-04 16:49 | 48.68404 | 9.20634 | 1289 ft | 2 kts | 173° |
| 2026-05-04 16:50 | 48.68440 | 9.20633 | 1289 ft | 3 kts | 219° |
| 2026-05-04 16:50 | 48.68450 | 9.20648 | 1289 ft | 0 kts | 253° |
| 2026-05-04 16:51 | 48.68446 | 9.20631 | 1289 ft | 3 kts | 253° |
| 2026-05-04 16:52 | 48.68429 | 9.20543 | 1289 ft | 6 kts | 253° |
| 2026-05-04 16:52 | 48.68416 | 9.20472 | 1289 ft | 8 kts | 253° |
| 2026-05-04 16:53 | 48.68376 | 9.20269 | 1289 ft | 12 kts | 254° |
| 2026-05-04 16:53 | 48.68460 | 9.20082 | 1289 ft | 0 kts | 343° |
| 2026-05-04 16:55 | 48.68462 | 9.20080 | 1289 ft | 1 kts | 343° |
| 2026-05-04 16:55 | 48.68507 | 9.20062 | 1289 ft | 6 kts | 349° |
| 2026-05-04 16:56 | 48.68592 | 9.20115 | 1289 ft | 6 kts | 67° |
| 2026-05-04 16:56 | 48.68874 | 9.21585 | 1289 ft | 126 kts | 74° |
| 2026-05-04 16:57 | 48.69167 | 9.23105 | 1449 ft | 167 kts | 70° |
| 2026-05-04 16:57 | 48.69759 | 9.26465 | 3134 ft | 158 kts | 70° |
| 2026-05-04 16:58 | 48.70867 | 9.32272 | 3861 ft | 227 kts | 72° |
| 2026-05-04 16:58 | 48.71331 | 9.34689 | 4066 ft | 252 kts | 73° |
| 2026-05-04 16:59 | 48.72343 | 9.39980 | 5566 ft | 267 kts | 75° |
| 2026-05-04 17:00 | 48.74960 | 9.50992 | 8867 ft | 294 kts | 56° |
| 2026-05-04 17:00 | 48.79046 | 9.58486 | 10663 ft | 333 kts | 52° |
| 2026-05-04 17:01 | 48.82180 | 9.64176 | 11592 ft | 363 kts | 51° |
| 2026-05-04 17:01 | 48.85447 | 9.70150 | 13093 ft | 373 kts | 51° |
| 2026-05-04 17:02 | 48.88792 | 9.76289 | 14518 ft | 381 kts | 51° |